Time;durP1;ratioP1;P1;durP2;ratioP2;P2;SDS_P1;SDS_P2;PMS_P1;PMS_P2;Temp;Humidity;BMP_temperature;BMP_pressure;BME280_temperature;BME280_humidity;BME280_pressure;Samples;Min_cycle;Max_cycle;Signal;HPM_P1;HPM_P2
2023/05/21 00:01:15;;;;;;;26.95;18.85;;;12.20;99.90;;;;;;5134643;27;20027;-71
2023/05/21 00:03:41;;;;;;;24.58;18.85;;;12.20;99.90;;;;;;5134638;27;20102;-71
2023/05/21 00:06:07;;;;;;;23.25;18.20;;;12.20;99.90;;;;;;5133356;28;20028;-71
2023/05/21 00:08:33;;;;;;;24.50;18.65;;;12.20;99.90;;;;;;5134557;28;20039;-71
2023/05/21 00:10:58;;;;;;;27.15;19.58;;;12.10;99.90;;;;;;5134497;27;20452;-71
2023/05/21 00:13:24;;;;;;;27.52;18.77;;;12.10;99.90;;;;;;5134660;28;20042;-71
2023/05/21 00:15:50;;;;;;;29.08;19.05;;;12.10;99.90;;;;;;5134213;28;20498;-70
2023/05/21 00:18:15;;;;;;;22.90;17.48;;;12.10;99.90;;;;;;5133217;28;20030;-70
2023/05/21 00:20:41;;;;;;;26.48;17.70;;;13.40;99.90;;;;;;5134509;27;20022;-71
2023/05/21 00:23:07;;;;;;;24.27;17.90;;;12.10;99.90;;;;;;5134347;28;20019;-71
2023/05/21 00:25:32;;;;;;;25.70;18.15;;;12.00;99.90;;;;;;5133316;28;20020;-71
2023/05/21 00:27:58;;;;;;;23.30;17.38;;;12.00;99.90;;;;;;5134377;28;20067;-71
2023/05/21 00:30:23;;;;;;;23.25;17.30;;;12.00;99.90;;;;;;5133037;28;20391;-71
2023/05/21 00:32:49;;;;;;;27.52;18.48;;;11.90;99.90;;;;;;5133207;28;20026;-71
2023/05/21 00:35:15;;;;;;;23.00;16.70;;;11.90;99.90;;;;;;5133038;28;20433;-71
2023/05/21 00:37:41;;;;;;;24.42;18.38;;;11.90;99.90;;;;;;5134182;28;20070;-71
2023/05/21 00:40:08;;;;;;;28.00;17.98;;;11.80;99.90;;;;;;5132973;28;20042;-71
2023/05/21 00:42:38;;;;;;;24.33;17.48;;;11.80;99.90;;;;;;5133176;27;20027;-71
2023/05/21 00:45:06;;;;;;;27.40;19.38;;;11.80;99.90;;;;;;5137722;27;20076;-71
2023/05/21 00:47:33;;;;;;;24.27;16.80;;;11.80;99.90;;;;;;5136495;27;20411;-71
2023/05/21 00:50:00;;;;;;;27.02;17.80;;;11.80;99.90;;;;;;5137928;27;20023;-71
2023/05/21 00:52:26;;;;;;;26.83;18.40;;;11.80;99.90;;;;;;5137879;27;20068;-70
2023/05/21 00:54:52;;;;;;;25.35;17.55;;;11.70;99.90;;;;;;5136812;27;20380;-70
2023/05/21 00:57:21;;;;;;;21.80;16.52;;;11.70;99.90;;;;;;5137087;27;20121;-70
2023/05/21 00:59:50;;;;;;;25.17;18.30;;;11.70;99.90;;;;;;5136382;27;20030;-71
2023/05/21 01:02:19;;;;;;;23.73;18.10;;;11.70;99.90;;;;;;5137756;27;20027;-71
2023/05/21 01:04:45;;;;;;;24.10;17.85;;;11.70;99.90;;;;;;5136312;27;20027;-72
2023/05/21 01:07:11;;;;;;;29.20;19.30;;;11.70;99.90;;;;;;5137673;27;20034;-71
2023/05/21 01:09:37;;;;;;;26.17;18.33;;;11.60;99.90;;;;;;5136714;27;20429;-71
2023/05/21 01:12:04;;;;;;;25.77;18.10;;;11.60;99.90;;;;;;5137706;27;20054;-71
2023/05/21 01:14:31;;;;;;;25.10;19.60;;;11.60;99.90;;;;;;5138154;27;20019;-72
2023/05/21 01:17:00;;;;;;;23.02;18.10;;;11.50;99.90;;;;;;5137884;27;20030;-72
2023/05/21 01:19:27;;;;;;;23.85;17.45;;;11.50;99.90;;;;;;5139485;27;20060;-74
2023/05/21 01:22:00;;;;;;;22.42;17.13;;;11.50;99.90;;;;;;5139185;27;20031;-72
2023/05/21 01:24:26;;;;;;;26.40;16.98;;;11.50;99.90;;;;;;5137687;27;20019;-71
2023/05/21 01:26:51;;;;;;;25.17;17.48;;;11.40;99.90;;;;;;5137209;27;20079;-71
2023/05/21 01:29:18;;;;;;;22.90;18.27;;;11.40;99.90;;;;;;5137211;27;20376;-71
2023/05/21 01:32:02;;;;;;;22.08;16.90;;;11.40;99.90;;;;;;5137131;27;20023;-71
2023/05/21 01:34:39;;;;;;;25.08;18.58;;;11.40;99.90;;;;;;5137096;27;20031;-71
2023/05/21 01:37:13;;;;;;;21.92;16.98;;;11.30;99.90;;;;;;5135727;27;20024;-71
2023/05/21 01:39:45;;;;;;;25.00;17.30;;;11.30;99.90;;;;;;5136044;27;20431;-71
2023/05/21 01:42:13;;;;;;;22.77;16.80;;;11.30;99.90;;;;;;5137663;27;20034;-71
2023/05/21 01:44:39;;;;;;;26.38;18.10;;;;;;;;;;5135612;27;20080;-71
2023/05/21 01:47:05;;;;;;;26.25;18.88;;;11.20;99.90;;;;;;5135376;27;20080;-71
2023/05/21 01:49:32;;;;;;;29.27;18.48;;;11.20;99.90;;;;;;5135980;27;20027;-71
2023/05/21 01:51:57;;;;;;;23.73;18.45;;;11.20;99.90;;;;;;5136807;27;20030;-71
2023/05/21 01:54:23;;;;;;;22.42;17.67;;;11.10;99.90;;;;;;5137024;27;20372;-71
2023/05/21 01:56:49;;;;;;;26.95;19.13;;;11.10;99.90;;;;;;5135394;27;20034;-71
2023/05/21 01:59:16;;;;;;;27.05;17.88;;;11.10;99.90;;;;;;5136680;27;20028;-71
2023/05/21 02:01:42;;;;;;;26.35;19.40;;;11.10;99.90;;;;;;5136645;27;20487;-71
2023/05/21 02:04:07;;;;;;;26.52;19.48;;;11.10;99.90;;;;;;5135226;27;20468;-71
2023/05/21 02:06:34;;;;;;;27.35;19.80;;;11.10;99.90;;;;;;5135325;27;20027;-71
2023/05/21 02:09:01;;;;;;;25.83;18.92;;;11.10;99.90;;;;;;5136813;27;20023;-71
2023/05/21 02:11:27;;;;;;;25.55;18.73;;;11.10;99.90;;;;;;5136493;27;20027;-71
2023/05/21 02:13:53;;;;;;;26.23;18.50;;;11.10;99.90;;;;;;5135329;27;20076;-71
2023/05/21 02:16:19;;;;;;;27.88;17.90;;;11.00;99.90;;;;;;5135038;27;20030;-71
2023/05/21 02:18:45;;;;;;;28.42;19.30;;;11.00;99.90;;;;;;5136374;27;20031;-71
2023/05/21 02:21:10;;;;;;;24.90;18.95;;;10.90;99.90;;;;;;5136122;27;20027;-71
2023/05/21 02:23:36;;;;;;;30.38;18.85;;;10.90;99.90;;;;;;5136428;27;20019;-71
2023/05/21 02:26:03;;;;;;;24.30;18.30;;;10.90;99.90;;;;;;5135326;27;20038;-71
2023/05/21 02:28:29;;;;;;;27.02;19.90;;;10.90;99.90;;;;;;5136052;27;20476;-71
2023/05/21 02:30:55;;;;;;;24.60;18.42;;;10.90;99.90;;;;;;5135063;27;20020;-71
2023/05/21 02:33:21;;;;;;;30.10;18.95;;;10.90;99.90;;;;;;5134779;27;20027;-71
2023/05/21 02:35:47;;;;;;;25.52;18.60;;;10.90;99.90;;;;;;5134685;27;20030;-71
2023/05/21 02:38:13;;;;;;;27.15;18.38;;;10.90;99.90;;;;;;5134707;27;20027;-71
2023/05/21 02:40:39;;;;;;;30.25;20.42;;;10.80;99.90;;;;;;5135940;27;20127;-71
2023/05/21 02:43:05;;;;;;;28.05;19.27;;;10.80;99.90;;;;;;5134779;27;20375;-71
2023/05/21 02:45:30;;;;;;;28.60;19.10;;;10.80;99.90;;;;;;5136022;27;20098;-71
2023/05/21 02:47:56;;;;;;;29.08;18.52;;;10.80;99.90;;;;;;5134490;27;20122;-71
2023/05/21 02:50:22;;;;;;;30.15;20.25;;;10.80;99.90;;;;;;5135563;27;20027;-71
2023/05/21 02:52:48;;;;;;;27.50;19.67;;;10.80;99.90;;;;;;5135389;27;20015;-70
2023/05/21 02:55:14;;;;;;;30.80;19.55;;;10.80;99.90;;;;;;5134366;27;20054;-71
2023/05/21 02:57:39;;;;;;;28.95;20.10;;;10.80;99.90;;;;;;5135578;27;20065;-71
2023/05/21 03:00:08;;;;;;;27.98;19.00;;;10.80;99.90;;;;;;5135567;27;20031;-71
2023/05/21 03:02:34;;;;;;;27.48;18.98;;;10.80;99.90;;;;;;5135335;27;20026;-71
2023/05/21 03:05:00;;;;;;;27.40;19.67;;;10.80;99.90;;;;;;5135422;27;20088;-71
2023/05/21 03:07:25;;;;;;;27.13;19.88;;;10.80;99.90;;;;;;5134999;27;20030;-71
2023/05/21 03:09:51;;;;;;;27.88;20.20;;;10.70;99.90;;;;;;5135592;27;20059;-71
2023/05/21 03:12:17;;;;;;;27.75;19.10;;;10.70;99.90;;;;;;5135429;27;20031;-71
2023/05/21 03:14:43;;;;;;;25.15;18.23;;;10.70;99.90;;;;;;5135317;27;20536;-71
2023/05/21 03:17:12;;;;;;;25.20;17.58;;;10.70;99.90;;;;;;5135222;27;20031;-71
2023/05/21 03:19:39;;;;;;;25.23;18.52;;;10.60;99.90;;;;;;5134441;27;20209;-71
2023/05/21 03:22:05;;;;;;;24.70;18.20;;;10.60;99.90;;;;;;5135270;27;20472;-71
2023/05/21 03:24:31;;;;;;;24.02;17.13;;;10.60;99.90;;;;;;5135405;27;20048;-71
2023/05/21 03:27:00;;;;;;;26.15;18.33;;;10.60;99.90;;;;;;5134037;27;20027;-71
2023/05/21 03:29:26;;;;;;;26.40;18.23;;;10.60;99.90;;;;;;5134058;27;20031;-71
2023/05/21 03:31:55;;;;;;;23.58;17.88;;;10.60;99.90;;;;;;5133945;27;20019;-71
2023/05/21 03:34:21;;;;;;;21.83;17.40;;;10.50;99.90;;;;;;5135073;27;20020;-71
2023/05/21 03:36:47;;;;;;;22.73;17.60;;;10.50;99.90;;;;;;5135286;27;20042;-71
2023/05/21 03:39:12;;;;;;;22.60;17.75;;;10.60;99.90;;;;;;5135194;28;20447;-71
2023/05/21 03:41:38;;;;;;;26.17;18.85;;;10.60;99.90;;;;;;5135402;27;20457;-71
2023/05/21 03:44:04;;;;;;;22.52;17.25;;;10.60;99.90;;;;;;5135049;28;20023;-71
2023/05/21 03:46:30;;;;;;;24.15;16.90;;;10.50;99.90;;;;;;5133226;28;20407;-71
2023/05/21 03:48:57;;;;;;;28.35;17.63;;;10.60;99.90;;;;;;5134981;28;20019;-71
2023/05/21 03:51:23;;;;;;;21.65;17.33;;;10.60;99.90;;;;;;5133832;28;20113;-71
2023/05/21 03:53:50;;;;;;;23.80;17.30;;;10.60;99.90;;;;;;5133624;28;20027;-71
2023/05/21 03:56:15;;;;;;;23.88;17.83;;;10.60;99.90;;;;;;5133896;28;20122;-71
2023/05/21 03:58:41;;;;;;;21.20;16.48;;;10.60;99.90;;;;;;5134614;27;20103;-71
2023/05/21 04:01:07;;;;;;;27.77;16.90;;;10.70;99.90;;;;;;5133582;28;20468;-71
2023/05/21 04:03:34;;;;;;;25.63;18.23;;;10.70;99.90;;;;;;5133459;28;20045;-72
2023/05/21 04:06:00;;;;;;;23.02;17.30;;;10.70;99.90;;;;;;5135120;27;20468;-72
2023/05/21 04:08:26;;;;;;;20.33;15.85;;;10.80;99.90;;;;;;5133587;28;20479;-72
2023/05/21 04:10:52;;;;;;;22.83;16.10;;;10.80;99.90;;;;;;5135053;27;20023;-72
2023/05/21 04:13:17;;;;;;;24.92;16.55;;;10.80;99.90;;;;;;5134368;28;20428;-72
2023/05/21 04:15:45;;;;;;;20.58;16.27;;;10.80;99.90;;;;;;5134548;28;20020;-71
2023/05/21 04:18:12;;;;;;;23.40;15.90;;;10.90;99.90;;;;;;5134844;27;20019;-73
2023/05/21 04:20:38;;;;;;;23.45;16.27;;;10.90;99.90;;;;;;5137183;27;20060;-72
2023/05/21 04:23:04;;;;;;;22.80;16.15;;;11.00;99.90;;;;;;5138382;27;20077;-71
2023/05/21 04:25:29;;;;;;;24.17;16.75;;;11.00;99.90;;;;;;5137154;27;20103;-71
2023/05/21 04:27:55;;;;;;;23.13;15.82;;;11.10;99.90;;;;;;5138474;27;20030;-71
2023/05/21 04:30:22;;;;;;;22.88;17.08;;;11.10;99.90;;;;;;5138449;27;20517;-72
2023/05/21 04:32:48;;;;;;;20.15;15.73;;;11.20;99.90;;;;;;5137058;27;20027;-71
2023/05/21 04:35:14;;;;;;;23.67;16.02;;;11.20;99.90;;;;;;5136636;27;20019;-72
2023/05/21 04:37:40;;;;;;;23.42;15.88;;;11.30;99.90;;;;;;5138413;27;20027;-71
2023/05/21 04:40:08;;;;;;;23.35;16.45;;;11.30;99.90;;;;;;5138247;27;20387;-71
2023/05/21 04:42:34;;;;;;;20.23;15.43;;;11.40;99.90;;;;;;5138040;27;20072;-71
2023/05/21 04:45:00;;;;;;;23.80;15.73;;;11.40;99.90;;;;;;5136744;27;20055;-71
2023/05/21 04:47:29;;;;;;;23.63;16.10;;;11.50;99.90;;;;;;5136402;27;20050;-70
2023/05/21 04:49:55;;;;;;;22.27;15.48;;;11.60;99.90;;;;;;5137919;27;20051;-72
2023/05/21 04:52:20;;;;;;;21.80;16.45;;;11.70;99.90;;;;;;5136715;27;20070;-72
2023/05/21 04:54:46;;;;;;;20.50;15.90;;;11.70;99.90;;;;;;5136435;27;20468;-72
2023/05/21 04:57:12;;;;;;;23.30;15.90;;;11.80;99.90;;;;;;5137664;27;20031;-72
2023/05/21 04:59:38;;;;;;;22.65;16.38;;;11.90;99.90;;;;;;5137796;27;20024;-72
2023/05/21 05:02:04;;;;;;;18.58;15.98;;;11.90;99.90;;;;;;5136430;27;20024;-72
2023/05/21 05:04:30;;;;;;;19.80;15.68;;;12.00;99.90;;;;;;5136303;27;20421;-72
2023/05/21 05:06:56;;;;;;;22.20;16.17;;;12.10;99.90;;;;;;5137264;27;20031;-72
2023/05/21 05:09:23;;;;;;;25.20;16.35;;;12.20;99.90;;;;;;5136844;27;20075;-73
2023/05/21 05:11:49;;;;;;;22.77;16.13;;;12.30;99.90;;;;;;5136419;27;20034;-73
2023/05/21 05:14:15;;;;;;;22.42;16.38;;;12.30;99.90;;;;;;5137117;27;20027;-72
2023/05/21 05:16:41;;;;;;;19.02;16.35;;;12.40;99.90;;;;;;5137316;27;20115;-72
2023/05/21 05:19:07;;;;;;;19.05;15.95;;;12.50;99.90;;;;;;5137259;27;20027;-72
2023/05/21 05:21:33;;;;;;;20.38;16.35;;;12.60;99.90;;;;;;5136027;27;20027;-72
2023/05/21 05:23:59;;;;;;;24.85;15.77;;;12.70;99.90;;;;;;5137365;27;20379;-72
2023/05/21 05:26:25;;;;;;;21.15;15.52;;;12.80;99.90;;;;;;5137531;27;20468;-72
2023/05/21 05:28:51;;;;;;;22.35;15.95;;;12.90;99.90;;;;;;5144257;27;20114;-72
2023/05/21 05:31:16;;;;;;;20.10;15.40;;;13.00;99.90;;;;;;5145522;27;20034;-72
2023/05/21 05:33:42;;;;;;;18.58;15.23;;;13.20;99.90;;;;;;5140488;27;20030;-73
2023/05/21 05:36:08;;;;;;;18.50;15.45;;;13.40;99.90;;;;;;5136876;27;20031;-73
2023/05/21 05:38:34;;;;;;;17.10;13.95;;;13.60;99.90;;;;;;5137096;27;20024;-73
2023/05/21 05:41:00;;;;;;;16.05;13.98;;;13.70;99.90;;;;;;5136962;27;20019;-73
2023/05/21 05:43:26;;;;;;;18.55;14.13;;;13.90;99.90;;;;;;5136755;27;20441;-73
2023/05/21 05:45:52;;;;;;;18.25;14.55;;;14.10;99.90;;;;;;5136634;27;20047;-73
2023/05/21 05:48:17;;;;;;;20.77;14.73;;;14.30;99.90;;;;;;5137101;27;20027;-73
2023/05/21 05:50:44;;;;;;;17.40;14.25;;;14.50;99.90;;;;;;5136710;27;20061;-73
2023/05/21 05:53:12;;;;;;;17.50;13.95;;;14.70;99.90;;;;;;5135532;27;20058;-73
2023/05/21 05:55:38;;;;;;;20.75;14.10;;;14.90;99.90;;;;;;5136567;27;20584;-74
2023/05/21 05:58:03;;;;;;;20.95;14.10;;;15.10;99.90;;;;;;5140278;27;20023;-75
2023/05/21 06:00:29;;;;;;;15.88;13.20;;;15.40;99.90;;;;;;5138379;27;20039;-73
2023/05/21 06:02:54;;;;;;;19.30;13.05;;;15.80;99.90;;;;;;5136268;27;20050;-72
2023/05/21 06:05:20;;;;;;;14.65;11.82;;;16.60;99.90;;;;;;5135329;27;20027;-73
2023/05/21 06:07:46;;;;;;;14.55;11.27;;;17.30;99.90;;;;;;5135141;27;20023;-73
2023/05/21 06:10:11;;;;;;;13.23;10.80;;;18.00;99.90;;;;;;5136189;27;20027;-74
2023/05/21 06:12:37;;;;;;;14.88;10.57;;;18.60;99.90;;;;;;5136407;27;20032;-73
2023/05/21 06:15:03;;;;;;;13.25;10.20;;;19.10;99.90;;;;;;5136331;27;20015;-61
2023/05/21 06:17:30;;;;;;;12.98;10.52;;;19.50;99.90;;;;;;5135034;27;20027;-61
2023/05/21 06:19:56;;;;;;;12.02;9.88;;;19.90;99.90;;;;;;5136077;27;20039;-59
2023/05/21 06:22:21;;;;;;;15.30;10.15;;;20.20;99.90;;;;;;5136303;27;20037;-60
2023/05/21 06:24:47;;;;;;;10.43;9.32;;;20.60;99.90;;;;;;5135830;27;20030;-73
2023/05/21 06:27:12;;;;;;;9.88;8.88;;;20.80;99.90;;;;;;5134837;27;20027;-75
2023/05/21 06:29:39;;;;;;;16.10;10.07;;;21.10;99.90;;;;;;5135979;27;20031;-61
2023/05/21 06:32:06;;;;;;;9.60;8.60;;;21.20;99.90;;;;;;5135902;27;20023;-61
2023/05/21 06:34:32;;;;;;;10.43;8.70;;;21.40;99.90;;;;;;5136016;27;20051;-61
2023/05/21 06:36:58;;;;;;;12.32;9.00;;;21.60;99.90;;;;;;5135415;27;20495;-66
2023/05/21 06:39:23;;;;;;;12.30;8.88;;;21.80;99.90;;;;;;5135784;27;20084;-75
2023/05/21 06:41:49;;;;;;;8.88;7.88;;;22.00;99.90;;;;;;5135074;27;20376;-75
2023/05/21 06:44:15;;;;;;;20.05;8.40;;;22.10;99.90;;;;;;5134535;27;20114;-75
2023/05/21 06:46:41;;;;;;;9.68;8.50;;;22.20;99.90;;;;;;5135288;27;20068;-75
2023/05/21 06:49:07;;;;;;;9.13;7.88;;;22.30;99.90;;;;;;5135721;27;20023;-75
2023/05/21 06:51:33;;;;;;;11.30;8.40;;;22.30;99.90;;;;;;5135784;27;20019;-74
2023/05/21 06:53:58;;;;;;;12.90;8.13;;;22.40;99.90;;;;;;5135602;27;20083;-72
2023/05/21 06:56:25;;;;;;;11.30;7.75;;;22.40;99.60;;;;;;5134347;27;20034;-71
2023/05/21 06:58:51;;;;;;;12.43;8.13;;;22.40;99.90;;;;;;5134243;27;20117;-76
2023/05/21 07:01:16;;;;;;;10.50;8.02;;;22.60;99.20;;;;;;5134336;27;20102;-71
2023/05/21 07:03:42;;;;;;;10.60;8.40;;;22.60;99.40;;;;;;5136135;27;20372;-72
2023/05/21 07:06:07;;;;;;;11.57;8.45;;;22.80;98.70;;;;;;5135306;27;20027;-71
2023/05/21 07:08:33;;;;;;;14.57;8.05;;;22.60;99.20;;;;;;5135691;27;20020;-70
2023/05/21 07:10:59;;;;;;;12.43;8.15;;;22.90;99.10;;;;;;5135058;27;20030;-71
2023/05/21 07:13:24;;;;;;;13.27;8.20;;;23.30;97.70;;;;;;5135134;27;20468;-71
2023/05/21 07:15:50;;;;;;;8.18;7.43;;;23.50;96.10;;;;;;5135164;27;20106;-71
2023/05/21 07:18:16;;;;;;;10.40;7.18;;;23.70;95.60;;;;;;5146057;27;20030;-73
2023/05/21 07:20:41;;;;;;;8.20;7.40;;;23.70;93.60;;;;;;5155086;27;20058;-73
2023/05/21 07:23:07;;;;;;;8.40;7.60;;;23.50;93.90;;;;;;5159912;27;20366;-71
2023/05/21 07:25:33;;;;;;;9.82;7.45;;;23.20;93.70;;;;;;5150223;27;20050;-71
2023/05/21 07:27:58;;;;;;;10.32;7.32;;;23.10;94.50;;;;;;5133795;27;20031;-72
2023/05/21 07:30:24;;;;;;;8.43;7.05;;;23.20;94.20;;;;;;5152765;27;20050;-74
2023/05/21 07:32:50;;;;;;;12.02;7.90;;;23.40;94.00;;;;;;5155465;27;20106;-73
2023/05/21 07:35:15;;;;;;;11.10;7.88;;;23.50;93.70;;;;;;5155895;27;20022;-73
2023/05/21 07:37:41;;;;;;;10.45;7.90;;;23.30;92.80;;;;;;5155502;27;20035;-73
2023/05/21 07:40:07;;;;;;;10.25;8.20;;;23.40;93.10;;;;;;5155391;27;20074;-71
2023/05/21 07:42:33;;;;;;;9.05;8.13;;;23.70;93.00;;;;;;5159381;27;20031;-72
2023/05/21 07:44:58;;;;;;;9.77;8.02;;;23.30;92.70;;;;;;5153982;27;20030;-74
2023/05/21 07:47:24;;;;;;;18.70;8.60;;;23.30;93.10;;;;;;5154072;27;20057;-63
2023/05/21 07:49:50;;;;;;;18.10;8.02;;;23.30;92.60;;;;;;5155572;27;20097;-58
2023/05/21 07:52:15;;;;;;;9.40;7.88;;;23.40;93.20;;;;;;5155828;27;20022;-57
2023/05/21 07:54:41;;;;;;;14.98;8.23;;;23.40;93.10;;;;;;5159909;27;20027;-57
2023/05/21 07:57:07;;;;;;;11.82;7.70;;;23.60;92.30;;;;;;5159441;27;20026;-57
2023/05/21 07:59:32;;;;;;;13.88;8.65;;;23.60;92.30;;;;;;5160464;27;20027;-57
2023/05/21 08:01:58;;;;;;;10.07;8.18;;;23.70;92.80;;;;;;5159918;27;20026;-57
2023/05/21 08:04:24;;;;;;;12.85;8.55;;;23.60;92.00;;;;;;5162307;27;20023;-56
2023/05/21 08:06:50;;;;;;;12.00;9.48;;;23.30;92.00;;;;;;5165869;27;20029;-57
2023/05/21 08:09:15;;;;;;;10.00;8.40;;;23.30;92.10;;;;;;5165468;27;20030;-57
2023/05/21 08:11:41;;;;;;;12.57;8.05;;;23.40;92.60;;;;;;5163413;27;20034;-57
2023/05/21 08:14:07;;;;;;;9.73;8.00;;;23.50;91.90;;;;;;5162014;27;20110;-57
2023/05/21 08:16:33;;;;;;;15.75;7.75;;;23.70;92.60;;;;;;5160800;27;20034;-73
2023/05/21 08:18:59;;;;;;;12.45;7.72;;;24.20;92.00;;;;;;5159667;27;20041;-74
2023/05/21 08:21:25;;;;;;;11.82;7.90;;;24.20;91.40;;;;;;5158011;27;20019;-74
2023/05/21 08:23:53;;;;;;;11.57;8.52;;;24.70;91.00;;;;;;5157925;27;20473;-73
2023/05/21 08:26:20;;;;;;;12.73;8.75;;;24.60;89.00;;;;;;5159078;27;20042;-74
2023/05/21 08:28:46;;;;;;;12.38;8.35;;;23.60;90.20;;;;;;5159103;27;20033;-74
2023/05/21 08:31:11;;;;;;;13.52;7.88;;;23.90;91.00;;;;;;5158669;27;20022;-74
2023/05/21 08:33:37;;;;;;;9.95;8.07;;;24.40;90.50;;;;;;5157822;27;20027;-74
2023/05/21 08:36:08;;;;;;;12.02;7.82;;;25.20;90.40;;;;;;5158532;27;20022;-75
2023/05/21 08:38:35;;;;;;;14.30;7.95;;;25.80;88.90;;;;;;5157907;27;20031;-77
2023/05/21 08:41:01;;;;;;;9.50;7.90;;;26.40;85.70;;;;;;5157594;27;20042;-75
2023/05/21 08:43:27;;;;;;;8.57;7.75;;;25.40;82.30;;;;;;5158982;27;20452;-75
2023/05/21 08:45:55;;;;;;;9.93;7.40;;;24.70;84.30;;;;;;5158534;27;20446;-75
2023/05/21 08:48:22;;;;;;;8.77;7.65;;;24.70;85.10;;;;;;5159289;27;20029;-74
2023/05/21 08:50:53;;;;;;;7.90;7.10;;;25.00;84.70;;;;;;5157496;27;20022;-75
2023/05/21 08:53:19;;;;;;;11.00;7.35;;;25.10;84.60;;;;;;5157738;27;20030;-77
2023/05/21 08:55:45;;;;;;;11.65;7.43;;;25.30;84.10;;;;;;5158531;27;20086;-75
2023/05/21 08:58:12;;;;;;;9.77;7.57;;;25.30;84.30;;;;;;5157532;27;20482;-77
2023/05/21 09:00:38;;;;;;;8.65;6.72;;;25.40;83.60;;;;;;5157668;27;20067;-75
2023/05/21 09:03:09;;;;;;;11.32;7.53;;;25.80;82.90;;;;;;5158492;27;20098;-76
2023/05/21 09:05:39;;;;;;;8.35;7.25;;;26.30;81.10;;;;;;5157591;27;20372;-75
2023/05/21 09:08:09;;;;;;;10.25;7.47;;;26.50;77.40;;;;;;5159399;27;20037;-74
2023/05/21 09:10:38;;;;;;;9.73;7.13;;;26.30;79.00;;;;;;5158375;27;20022;-75
2023/05/21 09:13:04;;;;;;;8.10;7.30;;;25.90;79.30;;;;;;5157111;27;20027;-75
2023/05/21 09:15:30;;;;;;;8.00;7.25;;;26.20;79.60;;;;;;5158249;27;20087;-75
2023/05/21 09:17:56;;;;;;;9.63;7.65;;;26.60;77.20;;;;;;5157707;27;20124;-75
2023/05/21 09:20:26;;;;;;;10.43;6.75;;;26.50;77.40;;;;;;5157011;27;20062;-75
2023/05/21 09:22:52;;;;;;;7.45;6.75;;;27.20;77.30;;;;;;5158219;27;20026;-75
2023/05/21 09:25:21;;;;;;;9.05;6.40;;;27.50;73.40;;;;;;5158126;27;20468;-75
2023/05/21 09:27:47;;;;;;;8.18;6.60;;;27.70;72.90;;;;;;5158284;27;20029;-76
2023/05/21 09:30:16;;;;;;;8.90;6.80;;;28.20;71.90;;;;;;5158059;27;20101;-75
2023/05/21 09:32:43;;;;;;;8.68;6.70;;;28.60;69.50;;;;;;5156902;27;20479;-75
2023/05/21 09:35:11;;;;;;;7.18;6.10;;;28.70;68.90;;;;;;5157159;27;20031;-75
2023/05/21 09:37:42;;;;;;;8.77;6.73;;;28.20;67.70;;;;;;5156836;27;20023;-75
2023/05/21 09:40:15;;;;;;;9.15;6.60;;;28.00;65.80;;;;;;5157144;27;20034;-75
2023/05/21 09:42:44;;;;;;;11.90;6.15;;;28.10;66.70;;;;;;5157933;27;20019;-75
2023/05/21 09:45:10;;;;;;;11.23;6.45;;;28.50;66.90;;;;;;5156558;27;20026;-75
2023/05/21 09:47:43;;;;;;;7.20;5.38;;;28.90;64.70;;;;;;5157787;27;20130;-76
2023/05/21 09:50:10;;;;;;;6.40;5.80;;;29.30;63.20;;;;;;5157002;27;20027;-76
2023/05/21 09:52:37;;;;;;;9.52;5.80;;;28.80;60.80;;;;;;5156390;27;20375;-74
2023/05/21 09:55:06;;;;;;;6.50;5.90;;;28.50;62.90;;;;;;5156134;27;20019;-75
2023/05/21 09:57:31;;;;;;;7.90;5.70;;;28.00;61.70;;;;;;5156033;27;20041;-76
2023/05/21 09:59:57;;;;;;;7.80;5.65;;;27.70;62.80;;;;;;5156140;27;20062;-76
2023/05/21 10:02:25;;;;;;;8.80;6.20;;;27.80;62.20;;;;;;5157256;27;20048;-76
2023/05/21 10:04:53;;;;;;;6.45;5.43;;;27.80;61.10;;;;;;5155999;27;20030;-75
2023/05/21 10:07:24;;;;;;;9.82;6.10;;;28.00;63.60;;;;;;5157493;27;20026;-74
2023/05/21 10:09:54;;;;;;;6.78;5.97;;;28.20;62.20;;;;;;5156239;27;20031;-75
2023/05/21 10:12:23;;;;;;;8.52;5.32;;;28.00;60.20;;;;;;5157021;27;20026;-75
2023/05/21 10:15:00;;;;;;;10.20;5.88;;;27.50;60.70;;;;;;5157211;27;20058;-76
2023/05/21 10:17:28;;;;;;;9.00;5.82;;;27.80;61.00;;;;;;5154725;27;20065;-76
2023/05/21 10:19:55;;;;;;;10.13;6.45;;;27.50;60.40;;;;;;5155772;27;20027;-75
2023/05/21 10:22:24;;;;;;;9.80;6.43;;;27.50;62.40;;;;;;5155596;27;20059;-75
2023/05/21 10:24:51;;;;;;;;;;;27.60;63.30;;;;;;5155900;27;20085;-75
2023/05/21 10:27:17;;;;;;;7.80;5.35;;;27.50;61.50;;;;;;5155523;27;19903;-74
2023/05/21 10:29:44;;;;;;;7.72;5.45;;;28.10;61.40;;;;;;5157078;27;20026;-75
2023/05/21 10:32:12;;;;;;;7.20;5.07;;;28.80;61.80;;;;;;5155295;27;20035;-76
2023/05/21 10:34:37;;;;;;;6.40;5.22;;;29.80;59.80;;;;;;5156669;27;20019;-75
2023/05/21 10:37:06;;;;;;;9.90;5.85;;;29.70;57.30;;;;;;5156528;27;20042;-77
2023/05/21 10:39:33;;;;;;;6.47;5.60;;;30.00;56.00;;;;;;5155298;27;20034;-77
2023/05/21 10:42:20;;;;;;;7.93;6.05;;;30.30;56.30;;;;;;5155373;27;20095;-77
2023/05/21 10:45:15;;;;;;;8.13;5.30;;;30.70;55.00;;;;;;5157156;27;20080;-75
2023/05/21 10:48:06;;;;;;;7.35;5.60;;;30.40;54.90;;;;;;5155750;27;20050;-75
2023/05/21 10:50:49;;;;;;;5.63;5.03;;;28.90;55.90;;;;;;5156299;27;20030;-76
2023/05/21 10:53:27;;;;;;;7.03;5.18;;;29.30;55.30;;;;;;5156307;27;20026;-77
2023/05/21 10:55:57;;;;;;;8.32;5.13;;;30.00;55.30;;;;;;5155939;27;20344;-75
2023/05/21 10:58:26;;;;;;;7.88;5.05;;;29.40;54.50;;;;;;5156035;27;20065;-74
2023/05/21 11:00:52;;;;;;;;;;;29.50;54.80;;;;;;5156595;27;20074;-75
2023/05/21 11:03:19;;;;;;;6.32;5.40;;;29.70;54.40;;;;;;5154748;27;19910;-76
2023/05/21 11:05:55;;;;;;;7.72;5.22;;;29.60;54.80;;;;;;5154922;27;20027;-76
2023/05/21 11:08:26;;;;;;;6.07;5.40;;;30.20;54.00;;;;;;5156198;27;20057;-76
2023/05/21 11:10:53;;;;;;;8.95;5.53;;;30.80;52.30;;;;;;5156093;27;20027;-77
2023/05/21 11:13:20;;;;;;;12.30;4.95;;;29.50;52.40;;;;;;5156041;27;20452;-77
2023/05/21 11:15:58;;;;;;;7.35;5.22;;;29.40;53.60;;;;;;5155773;27;20026;-77
2023/05/21 11:18:32;;;;;;;5.85;4.72;;;29.70;52.70;;;;;;5156113;27;20029;-77
2023/05/21 11:21:29;;;;;;;5.95;4.57;;;29.80;53.30;;;;;;5154773;27;20050;-77
2023/05/21 11:23:59;;;;;;;7.80;5.22;;;30.60;52.60;;;;;;5154436;27;20050;-76
2023/05/21 11:26:27;;;;;;;7.32;5.00;;;31.40;51.60;;;;;;5155905;27;20023;-77
2023/05/21 11:29:05;;;;;;;6.82;4.80;;;31.90;49.90;;;;;;5155862;27;20026;-76
2023/05/21 11:31:38;;;;;;;8.52;4.65;;;32.80;49.40;;;;;;5156539;27;20052;-77
2023/05/21 11:34:33;;;;;;;5.88;5.05;;;33.30;47.50;;;;;;5155948;27;20083;-77
2023/05/21 11:37:19;;;;;;;5.32;4.53;;;32.60;45.70;;;;;;5155987;27;20114;-76
2023/05/21 11:39:45;;;;;;;5.20;4.70;;;30.80;48.40;;;;;;5154945;27;20435;-77
2023/05/21 11:42:11;;;;;;;5.90;4.93;;;31.00;49.60;;;;;;5155936;27;20026;-77
2023/05/21 11:44:40;;;;;;;6.43;5.30;;;31.00;49.10;;;;;;5155976;27;20023;-77
2023/05/21 11:47:08;;;;;;;6.40;4.97;;;30.80;49.30;;;;;;5163613;27;20074;-74
2023/05/21 11:49:35;;;;;;;;;;;30.30;48.60;;;;;;5161388;27;20491;-74
2023/05/21 11:52:02;;;;;;;5.68;4.82;;;30.20;49.60;;;;;;5159708;27;20316;-75
2023/05/21 11:54:32;;;;;;;8.45;4.97;;;30.00;51.30;;;;;;5155282;27;20083;-74
2023/05/21 11:56:59;;;;;;;8.23;4.93;;;31.20;49.50;;;;;;5154243;27;20038;-77
2023/05/21 11:59:25;;;;;;;6.28;5.40;;;31.70;49.00;;;;;;5155452;27;20027;-77
2023/05/21 12:01:50;;;;;;;8.82;5.25;;;31.70;46.00;;;;;;5155383;27;20026;-76
2023/05/21 12:04:16;;;;;;;5.80;4.65;;;31.40;46.70;;;;;;5155123;27;20092;-77
2023/05/21 12:06:42;;;;;;;7.32;4.53;;;31.40;47.20;;;;;;5155465;27;20170;-77
2023/05/21 12:09:11;;;;;;;5.40;4.90;;;31.70;47.50;;;;;;5155358;27;20031;-77
2023/05/21 12:11:43;;;;;;;8.07;5.10;;;32.60;47.00;;;;;;5155378;27;20468;-76
2023/05/21 12:14:12;;;;;;;7.82;4.68;;;32.90;45.40;;;;;;5155437;27;20453;-77
2023/05/21 12:16:39;;;;;;;6.32;5.13;;;33.00;45.00;;;;;;5154250;27;20030;-77
2023/05/21 12:19:05;;;;;;;6.20;4.20;;;32.90;45.20;;;;;;5155219;27;20023;-77
2023/05/21 12:21:32;;;;;;;7.72;5.28;;;32.80;45.60;;;;;;5153905;27;20048;-76
2023/05/21 12:23:57;;;;;;;7.13;4.45;;;33.10;44.80;;;;;;5153685;27;20022;-76
2023/05/21 12:26:24;;;;;;;5.90;5.20;;;32.90;45.40;;;;;;5154942;27;20104;-77
2023/05/21 12:28:53;;;;;;;4.45;4.15;;;32.00;45.70;;;;;;5155357;27;20034;-76
2023/05/21 12:31:23;;;;;;;6.35;4.88;;;32.40;46.00;;;;;;5153890;27;20053;-74
2023/05/21 12:33:52;;;;;;;6.78;4.82;;;32.70;46.20;;;;;;5155301;27;20054;-76
2023/05/21 12:36:25;;;;;;;7.15;4.97;;;33.20;45.30;;;;;;5155130;27;20041;-76